Big Basin, California
Current Conditions -  °F | °C
As of 10:56 AM on Friday 24 Oct 2014 (Local Time) from KNUQ Reporting Station
Clear Clear  
Wind Chill: 67°   Ceiling: Unl
Heat Index: 67°   Visibility: 10mi
Dew Point: 56°   Wind: 3mph
Humidity: 68%   Direction: 350°N
Pressure: 29.97"   Gusts: NA
Location:  37.1694°N, 122.153°W
Report Text: KNUQ 241756Z 35003KT 10SM CLR 19/13 A2997 RMK AO2 SLP150 T01940133 10194 20122 58001
Loading
Personal Weather Stations






























Interactive Weather Map
Tropical Storm Tracking
New forecast layout! Learn more

10-Day Weather Forecast

Advertisements
Track Severe Weather on mobile